createdAt,value
2022-08-11T00:01:22.339Z,20.70
2022-08-11T00:03:58.786Z,20.70
2022-08-11T00:06:31.871Z,20.60
2022-08-11T00:09:00.771Z,20.60
2022-08-11T00:11:35.294Z,20.50
2022-08-11T00:14:04.476Z,20.50
2022-08-11T00:16:33.113Z,20.50
2022-08-11T00:19:01.984Z,20.60
2022-08-11T00:22:02.789Z,20.50
2022-08-11T00:24:18.586Z,20.40
2022-08-11T00:26:51.422Z,20.40
2022-08-11T00:29:20.089Z,20.30
2022-08-11T00:31:56.088Z,20.30
2022-08-11T00:34:33.361Z,20.20
2022-08-11T00:37:09.382Z,20.30
2022-08-11T00:39:49.929Z,20.20
2022-08-11T00:42:54.457Z,20.10
2022-08-11T00:45:27.373Z,20.20
2022-08-11T00:48:19.877Z,20.10
2022-08-11T00:51:09.400Z,20.10
2022-08-11T00:53:57.798Z,20.00
2022-08-11T00:56:36.836Z,20.10
2022-08-11T00:59:35.318Z,20.10
2022-08-11T01:02:19.709Z,20.00
2022-08-11T01:05:18.908Z,19.90
2022-08-11T01:08:00.574Z,19.90
2022-08-11T01:10:39.440Z,19.80
2022-08-11T01:13:17.023Z,19.80
2022-08-11T01:16:05.999Z,19.80
2022-08-11T01:18:55.318Z,19.70
2022-08-11T01:21:57.246Z,19.70
2022-08-11T01:25:02.043Z,19.70
2022-08-11T01:27:59.451Z,19.70
2022-08-11T01:31:01.186Z,19.70
2022-08-11T01:33:56.476Z,19.70
2022-08-11T01:36:53.556Z,19.70
2022-08-11T01:40:04.749Z,19.70
2022-08-11T01:43:32.852Z,19.70
2022-08-11T01:46:11.286Z,19.70
2022-08-11T01:48:50.124Z,19.70
2022-08-11T01:51:43.265Z,19.60
2022-08-11T01:55:07.817Z,19.60
2022-08-11T01:57:47.806Z,19.60
2022-08-11T02:00:26.219Z,19.50
2022-08-11T02:03:24.390Z,19.50
2022-08-11T02:06:32.921Z,19.50
2022-08-11T02:09:20.210Z,19.50
2022-08-11T02:11:51.026Z,19.50
2022-08-11T02:15:04.514Z,19.40
2022-08-11T02:17:48.790Z,19.40
2022-08-11T02:20:44.592Z,19.40
2022-08-11T02:24:03.924Z,19.30
2022-08-11T02:26:48.698Z,19.30
2022-08-11T02:29:29.813Z,19.30
2022-08-11T02:32:33.844Z,19.20
2022-08-11T02:35:14.185Z,19.20
2022-08-11T02:38:01.258Z,19.10
2022-08-11T02:40:56.650Z,19.10
2022-08-11T02:43:27.039Z,19.10
2022-08-11T02:46:06.305Z,19.10
2022-08-11T02:49:05.483Z,19.10
2022-08-11T02:51:38.763Z,19.10
2022-08-11T02:54:18.086Z,19.00
2022-08-11T02:57:02.078Z,19.00
2022-08-11T02:59:53.271Z,19.00
2022-08-11T03:02:32.240Z,19.00
2022-08-11T03:05:11.959Z,19.00
2022-08-11T03:08:03.219Z,19.00
2022-08-11T03:11:06.433Z,19.10
2022-08-11T03:13:57.545Z,19.00
2022-08-11T03:16:48.372Z,18.90
2022-08-11T03:19:37.115Z,18.90
2022-08-11T03:22:07.579Z,18.90
2022-08-11T03:24:54.892Z,18.80
2022-08-11T03:27:31.066Z,18.80
2022-08-11T03:30:04.299Z,18.80
2022-08-11T03:33:34.248Z,18.80
2022-08-11T03:36:20.195Z,18.80
2022-08-11T03:39:08.513Z,18.70
2022-08-11T03:42:03.115Z,18.60
2022-08-11T03:45:06.638Z,18.60
2022-08-11T03:47:55.621Z,18.70
2022-08-11T03:50:42.494Z,18.70
2022-08-11T03:53:34.364Z,18.60
2022-08-11T03:56:35.512Z,18.60
2022-08-11T03:59:17.250Z,18.60
2022-08-11T04:01:50.679Z,18.60
2022-08-11T04:05:09.758Z,18.60
2022-08-11T04:08:02.066Z,18.60
2022-08-11T04:10:48.222Z,18.60
2022-08-11T04:13:24.861Z,18.60
2022-08-11T04:16:15.423Z,18.50
2022-08-11T04:19:22.764Z,18.50
2022-08-11T04:22:25.318Z,18.50
2022-08-11T04:25:22.473Z,18.50
2022-08-11T04:28:31.526Z,18.50
2022-08-11T04:31:52.042Z,18.50
2022-08-11T04:34:32.705Z,18.40
2022-08-11T04:37:34.778Z,18.40
2022-08-11T04:40:24.011Z,18.30
2022-08-11T04:43:15.730Z,18.30
2022-08-11T04:46:11.108Z,18.30
2022-08-11T04:49:03.321Z,18.30
2022-08-11T04:52:07.228Z,18.30
2022-08-11T04:55:18.166Z,18.20
2022-08-11T04:58:32.415Z,18.20
2022-08-11T05:01:42.447Z,18.20
2022-08-11T05:04:41.870Z,18.20
2022-08-11T05:07:39.906Z,18.20
2022-08-11T05:10:18.776Z,18.20
2022-08-11T05:12:55.348Z,18.30
2022-08-11T05:16:04.266Z,18.20
2022-08-11T05:18:52.236Z,18.20
2022-08-11T05:21:44.846Z,18.10
2022-08-11T05:24:49.745Z,18.20
2022-08-11T05:27:38.009Z,18.20
2022-08-11T05:30:29.420Z,18.30
2022-08-11T05:33:51.654Z,18.20
2022-08-11T05:36:31.142Z,18.20
2022-08-11T05:39:20.792Z,18.30
2022-08-11T05:42:30.468Z,18.30
2022-08-11T05:46:02.370Z,18.30
2022-08-11T05:48:36.951Z,18.30
2022-08-11T05:51:30.379Z,18.30
2022-08-11T05:54:28.639Z,18.30
2022-08-11T05:56:59.878Z,18.40
2022-08-11T05:59:28.805Z,18.40
2022-08-11T06:02:08.538Z,18.40
2022-08-11T06:04:38.278Z,18.40
2022-08-11T06:07:09.379Z,18.40
2022-08-11T06:09:51.206Z,18.40
2022-08-11T06:12:22.712Z,18.50
2022-08-11T06:14:55.532Z,18.60
2022-08-11T06:17:38.473Z,18.60
2022-08-11T06:20:12.432Z,18.70
2022-08-11T06:22:43.823Z,18.80
2022-08-11T06:25:12.422Z,18.80
2022-08-11T06:27:44.007Z,18.80
2022-08-11T06:30:14.237Z,18.80
2022-08-11T06:32:44.825Z,18.90
2022-08-11T06:35:18.460Z,18.90
2022-08-11T06:38:16.215Z,18.90
2022-08-11T06:41:25.967Z,18.90
2022-08-11T06:44:05.291Z,18.90
2022-08-11T06:46:39.163Z,19.00
2022-08-11T06:49:31.832Z,19.10
2022-08-11T06:52:04.415Z,19.10
2022-08-11T06:54:36.313Z,19.10
2022-08-11T06:57:32.150Z,19.20
2022-08-11T07:00:22.579Z,19.20
2022-08-11T07:03:13.788Z,19.20
2022-08-11T07:05:56.164Z,19.30
2022-08-11T07:09:21.217Z,19.40
2022-08-11T07:12:21.281Z,19.50
2022-08-11T07:15:13.714Z,19.50
2022-08-11T07:18:09.876Z,19.60
2022-08-11T07:21:02.152Z,19.70
2022-08-11T07:23:52.941Z,19.80
2022-08-11T07:26:42.453Z,19.80
2022-08-11T07:29:14.787Z,19.90
2022-08-11T07:31:50.617Z,20.00
2022-08-11T07:34:28.084Z,20.10
2022-08-11T07:37:00.859Z,20.10
2022-08-11T07:39:32.343Z,20.20
2022-08-11T07:42:04.969Z,20.30
2022-08-11T07:44:54.190Z,20.40
2022-08-11T07:47:41.405Z,20.50
2022-08-11T07:50:28.773Z,20.60
2022-08-11T07:53:00.466Z,20.60
2022-08-11T07:55:51.524Z,20.70
2022-08-11T07:58:45.101Z,20.80
2022-08-11T08:01:38.426Z,20.80
2022-08-11T08:04:26.959Z,20.80
2022-08-11T08:07:13.516Z,20.90
2022-08-11T08:10:00.949Z,20.90
2022-08-11T08:12:48.183Z,21.00
2022-08-11T08:15:35.703Z,21.10
2022-08-11T08:18:09.316Z,21.20
2022-08-11T08:20:55.504Z,21.40
2022-08-11T08:23:35.536Z,21.50
2022-08-11T08:26:16.789Z,21.50
2022-08-11T08:28:46.552Z,21.60
2022-08-11T08:31:15.080Z,21.70
2022-08-11T08:33:43.677Z,21.80
2022-08-11T08:36:12.371Z,21.80
2022-08-11T08:38:51.221Z,21.90
2022-08-11T08:41:28.289Z,22.00
2022-08-11T08:44:34.792Z,22.10
2022-08-11T08:46:58.188Z,22.10
2022-08-11T08:49:40.084Z,22.20
2022-08-11T08:52:29.333Z,22.30
2022-08-11T08:55:01.222Z,22.30
2022-08-11T08:57:30.076Z,22.40
2022-08-11T08:59:59.605Z,22.50
2022-08-11T09:02:34.661Z,22.60
2022-08-11T09:05:04.598Z,22.70
2022-08-11T09:07:39.905Z,22.80
2022-08-11T09:10:10.839Z,22.80
2022-08-11T09:12:42.746Z,22.90
2022-08-11T09:15:12.509Z,22.90
2022-08-11T09:17:52.455Z,23.10
2022-08-11T09:20:29.421Z,23.10
2022-08-11T09:26:30.748Z,23.40
2022-08-11T09:29:00.238Z,23.80
2022-08-11T09:31:34.540Z,23.80
2022-08-11T09:34:06.835Z,23.70
2022-08-11T09:36:53.356Z,23.80
2022-08-11T09:39:39.817Z,24.00
2022-08-11T09:42:11.161Z,24.00
2022-08-11T09:44:50.820Z,24.10
2022-08-11T09:47:27.469Z,24.20
2022-08-11T09:50:01.041Z,24.30
2022-08-11T09:52:36.428Z,24.30
2022-08-11T09:55:11.127Z,24.30
2022-08-11T09:58:04.947Z,24.40
2022-08-11T10:00:38.047Z,24.60
2022-08-11T10:03:11.629Z,24.90
2022-08-11T10:05:58.468Z,25.10
2022-08-11T10:08:28.729Z,25.20
2022-08-11T10:10:57.722Z,25.20
2022-08-11T10:13:43.949Z,25.20
2022-08-11T10:16:27.928Z,25.40
2022-08-11T10:18:57.351Z,25.60
2022-08-11T10:21:28.464Z,25.70
2022-08-11T10:24:18.198Z,25.70
2022-08-11T10:27:00.636Z,25.80
2022-08-11T10:29:52.045Z,26.00
2022-08-11T10:32:58.462Z,26.20
2022-08-11T10:35:29.510Z,26.40
2022-08-11T10:38:08.222Z,26.40
2022-08-11T10:41:07.220Z,26.50
2022-08-11T10:44:02.904Z,26.60
2022-08-11T10:46:43.663Z,26.80
2022-08-11T10:49:11.478Z,26.80
2022-08-11T10:51:58.963Z,26.90
2022-08-11T10:54:44.984Z,27.00
2022-08-11T10:57:33.930Z,27.10
2022-08-11T11:00:02.075Z,27.40
2022-08-11T11:02:30.165Z,27.80
2022-08-11T11:05:03.580Z,28.10
2022-08-11T11:07:44.431Z,28.20
2022-08-11T11:10:12.418Z,28.10
2022-08-11T11:13:03.255Z,28.30
2022-08-11T11:15:51.126Z,28.40
2022-08-11T11:18:35.754Z,28.60
2022-08-11T11:21:18.724Z,28.70
2022-08-11T11:23:52.254Z,28.80
2022-08-11T11:26:28.101Z,29.00
2022-08-11T11:29:13.322Z,29.50
2022-08-11T11:31:58.498Z,29.70
2022-08-11T11:35:02.584Z,29.80
2022-08-11T11:37:36.767Z,29.80
2022-08-11T11:40:31.491Z,29.80
2022-08-11T11:43:00.478Z,29.60
2022-08-11T11:45:28.313Z,29.60
2022-08-11T11:47:59.467Z,29.70
2022-08-11T11:50:34.486Z,30.00
2022-08-11T11:53:05.741Z,30.30
2022-08-11T11:55:34.206Z,30.30
2022-08-11T11:58:22.314Z,30.60
2022-08-11T12:01:10.765Z,30.90
2022-08-11T12:03:39.630Z,30.80
2022-08-11T12:06:09.456Z,30.70
2022-08-11T12:08:37.842Z,30.60
2022-08-11T12:11:27.484Z,30.60
2022-08-11T12:14:02.127Z,30.90
2022-08-11T12:16:34.632Z,31.20
2022-08-11T12:19:11.896Z,31.40
2022-08-11T12:22:00.690Z,31.40
2022-08-11T12:24:49.228Z,31.70
2022-08-11T12:27:24.209Z,32.00
2022-08-11T12:29:57.068Z,31.90
2022-08-11T12:32:28.900Z,31.80
2022-08-11T12:34:58.050Z,32.00
2022-08-11T12:37:48.180Z,32.30
2022-08-11T12:41:11.876Z,32.50
2022-08-11T12:43:57.118Z,32.60
2022-08-11T12:46:45.949Z,32.50
2022-08-11T12:49:36.166Z,32.70
2022-08-11T12:52:14.441Z,32.80
2022-08-11T12:54:57.199Z,32.90
2022-08-11T12:57:56.254Z,32.80
2022-08-11T13:00:43.387Z,33.00
2022-08-11T13:03:30.965Z,33.50
2022-08-11T13:06:02.523Z,33.50
2022-08-11T13:08:35.624Z,34.30
2022-08-11T13:11:23.159Z,34.50
2022-08-11T13:13:57.111Z,34.40
2022-08-11T13:16:53.584Z,34.30
2022-08-11T13:19:22.949Z,34.40
2022-08-11T13:21:53.102Z,34.10
2022-08-11T13:24:21.636Z,33.90
2022-08-11T13:26:50.567Z,33.70
2022-08-11T13:29:23.215Z,33.50
2022-08-11T13:31:52.750Z,33.90
2022-08-11T13:34:22.947Z,34.10
2022-08-11T13:36:56.991Z,34.00
2022-08-11T13:39:27.080Z,34.30
2022-08-11T13:41:56.408Z,34.90
2022-08-11T13:44:27.277Z,35.10
2022-08-11T13:47:02.478Z,35.30
2022-08-11T13:49:39.885Z,35.20
2022-08-11T13:52:13.150Z,35.30
2022-08-11T13:54:42.615Z,34.80
2022-08-11T13:57:13.790Z,35.10
2022-08-11T14:00:13.372Z,35.40
2022-08-11T14:02:55.727Z,35.20
2022-08-11T14:05:28.175Z,34.60
2022-08-11T14:08:01.851Z,33.90
2022-08-11T14:10:32.990Z,33.90
2022-08-11T14:13:21.463Z,33.90
2022-08-11T14:15:50.693Z,34.20
2022-08-11T14:18:20.911Z,34.50
2022-08-11T14:21:14.639Z,34.20
2022-08-11T14:23:46.777Z,33.50
2022-08-11T14:26:29.099Z,33.50
2022-08-11T14:28:56.525Z,33.40
2022-08-11T14:31:25.690Z,33.10
2022-08-11T14:34:00.850Z,33.80
2022-08-11T14:36:35.291Z,34.20
2022-08-11T14:39:12.893Z,34.40
2022-08-11T14:42:10.608Z,34.90
2022-08-11T14:45:03.537Z,34.80
2022-08-11T14:47:39.357Z,34.80
2022-08-11T14:50:12.728Z,34.50
2022-08-11T14:52:48.599Z,34.10
2022-08-11T14:55:35.509Z,33.90
2022-08-11T14:58:04.267Z,33.90
2022-08-11T15:00:34.384Z,33.80
2022-08-11T15:03:10.358Z,33.70
2022-08-11T15:05:56.337Z,33.20
2022-08-11T15:08:49.330Z,32.80
2022-08-11T15:11:37.413Z,32.40
2022-08-11T15:14:07.473Z,31.90
2022-08-11T15:16:55.940Z,31.50
2022-08-11T15:19:27.439Z,31.30
2022-08-11T15:22:13.270Z,31.00
2022-08-11T15:24:41.094Z,30.70
2022-08-11T15:27:39.999Z,30.60
2022-08-11T15:30:26.889Z,30.40
2022-08-11T15:33:27.675Z,30.40
2022-08-11T15:36:15.615Z,30.30
2022-08-11T15:38:49.112Z,30.20
2022-08-11T15:41:58.190Z,30.20
2022-08-11T15:45:02.606Z,30.10
2022-08-11T15:47:57.609Z,30.00
2022-08-11T15:50:37.725Z,29.90
2022-08-11T15:53:17.770Z,29.80
2022-08-11T15:55:47.512Z,29.70
2022-08-11T15:58:37.425Z,29.70
2022-08-11T16:01:24.487Z,29.70
2022-08-11T16:04:14.456Z,29.70
2022-08-11T16:07:01.894Z,29.70
2022-08-11T16:09:52.653Z,29.60
2022-08-11T16:12:32.233Z,29.60
2022-08-11T16:15:25.016Z,29.60
2022-08-11T16:17:59.108Z,29.50
2022-08-11T16:20:29.146Z,29.50
2022-08-11T16:23:01.779Z,29.40
2022-08-11T16:26:30.590Z,29.40
2022-08-11T16:28:22.357Z,29.30
2022-08-11T16:30:51.103Z,29.40
2022-08-11T16:33:48.411Z,29.40
2022-08-11T16:36:28.509Z,29.40
2022-08-11T16:38:58.056Z,29.30
2022-08-11T16:41:49.601Z,29.30
2022-08-11T16:44:38.325Z,29.30
2022-08-11T16:47:14.138Z,29.30
2022-08-11T16:49:52.852Z,29.20
2022-08-11T16:52:22.720Z,29.20
2022-08-11T16:54:51.239Z,29.10
2022-08-11T16:57:46.335Z,28.90
2022-08-11T17:00:16.766Z,28.90
2022-08-11T17:03:09.885Z,28.90
2022-08-11T17:06:02.998Z,28.90
2022-08-11T17:08:57.251Z,28.80
2022-08-11T17:11:50.137Z,28.80
2022-08-11T17:14:35.991Z,28.80
2022-08-11T17:17:08.738Z,28.70
2022-08-11T17:20:41.298Z,28.60
2022-08-11T17:22:49.002Z,28.60
2022-08-11T17:25:18.564Z,28.50
2022-08-11T17:27:52.778Z,28.40
2022-08-11T17:30:46.449Z,28.40
2022-08-11T17:33:34.207Z,28.40
2022-08-11T17:36:02.755Z,28.40
2022-08-11T17:38:31.393Z,28.30
2022-08-11T17:41:24.549Z,28.30
2022-08-11T17:44:13.719Z,28.30
2022-08-11T17:47:05.200Z,28.20
2022-08-11T17:49:37.675Z,28.20
2022-08-11T17:52:33.208Z,28.10
2022-08-11T17:55:51.785Z,28.10
2022-08-11T17:58:28.834Z,28.00
2022-08-11T18:01:08.743Z,28.00
2022-08-11T18:03:41.773Z,27.90
2022-08-11T18:06:34.430Z,27.90
2022-08-11T18:09:28.577Z,27.90
2022-08-11T18:12:16.410Z,27.90
2022-08-11T18:15:09.114Z,27.90
2022-08-11T18:17:56.622Z,27.80
2022-08-11T18:20:43.581Z,27.70
2022-08-11T18:23:46.385Z,27.60
2022-08-11T18:26:39.558Z,27.60
2022-08-11T18:29:26.982Z,27.50
2022-08-11T18:32:22.178Z,27.50
2022-08-11T18:35:12.581Z,27.50
2022-08-11T18:38:05.721Z,27.50
2022-08-11T18:40:54.323Z,27.40
2022-08-11T18:43:43.189Z,27.40
2022-08-11T18:46:32.053Z,27.30
2022-08-11T18:50:02.061Z,27.20
2022-08-11T18:52:43.505Z,27.10
2022-08-11T18:55:35.939Z,27.10
2022-08-11T18:58:25.175Z,27.00
2022-08-11T19:01:15.034Z,27.00
2022-08-11T19:04:10.852Z,26.90
2022-08-11T19:07:06.674Z,26.80
2022-08-11T19:10:02.059Z,26.80
2022-08-11T19:12:55.983Z,26.60
2022-08-11T19:15:43.473Z,26.70
2022-08-11T19:18:33.501Z,26.60
2022-08-11T19:21:21.879Z,26.50
2022-08-11T19:24:12.641Z,26.40
2022-08-11T19:27:00.007Z,26.40
2022-08-11T19:30:12.073Z,26.30
2022-08-11T19:32:56.689Z,26.30
2022-08-11T19:35:44.125Z,26.20
2022-08-11T19:38:30.993Z,26.10
2022-08-11T19:41:51.827Z,26.00
2022-08-11T19:44:26.108Z,26.00
2022-08-11T19:47:13.442Z,25.90
2022-08-11T19:50:01.808Z,25.90
2022-08-11T19:52:49.437Z,25.80
2022-08-11T19:55:36.796Z,25.80
2022-08-11T19:58:26.578Z,25.70
2022-08-11T20:01:13.481Z,25.60
2022-08-11T20:04:00.031Z,25.60
2022-08-11T20:06:47.237Z,25.50
2022-08-11T20:10:05.261Z,25.40
2022-08-11T20:12:42.503Z,25.30
2022-08-11T20:15:29.974Z,25.30
2022-08-11T20:18:17.822Z,25.30
2022-08-11T20:21:24.881Z,25.20
2022-08-11T20:24:17.142Z,25.20
2022-08-11T20:27:04.475Z,25.10
2022-08-11T20:29:54.457Z,25.00
2022-08-11T20:32:41.025Z,25.00
2022-08-11T20:35:28.548Z,24.90
2022-08-11T20:38:15.533Z,24.90
2022-08-11T20:41:03.113Z,24.80
2022-08-11T20:44:06.034Z,24.90
2022-08-11T20:46:58.040Z,24.80
2022-08-11T20:49:53.842Z,24.70
2022-08-11T20:52:47.474Z,24.70
2022-08-11T20:55:52.186Z,24.60
2022-08-11T20:59:11.513Z,24.60
2022-08-11T21:01:47.366Z,24.50
2022-08-11T21:04:54.512Z,24.40
2022-08-11T21:07:43.854Z,24.40
2022-08-11T21:10:51.526Z,24.40
2022-08-11T21:13:41.577Z,24.30
2022-08-11T21:16:30.798Z,24.30
2022-08-11T21:19:59.605Z,24.20
2022-08-11T21:22:58.752Z,24.20
2022-08-11T21:25:51.885Z,24.20
2022-08-11T21:28:38.485Z,24.10
2022-08-11T21:31:27.199Z,24.10
2022-08-11T21:34:14.721Z,24.00
2022-08-11T21:37:03.165Z,23.90
2022-08-11T21:39:50.426Z,23.90
2022-08-11T21:42:38.113Z,23.90
2022-08-11T21:45:27.800Z,23.80
2022-08-11T21:48:15.623Z,23.80
2022-08-11T21:51:01.717Z,23.80
2022-08-11T21:53:49.523Z,23.80
2022-08-11T21:56:36.666Z,23.70
2022-08-11T21:59:23.746Z,23.70
2022-08-11T22:02:13.064Z,23.80
2022-08-11T22:05:00.925Z,23.80
2022-08-11T22:07:47.470Z,23.70
2022-08-11T22:10:42.350Z,23.60
2022-08-11T22:13:30.848Z,23.60
2022-08-11T22:16:18.980Z,23.50
2022-08-11T22:19:05.871Z,23.50
2022-08-11T22:22:02.826Z,23.40
2022-08-11T22:24:53.018Z,23.40
2022-08-11T22:27:39.859Z,23.40
2022-08-11T22:30:27.713Z,23.30
2022-08-11T22:33:17.123Z,23.30
2022-08-11T22:36:05.093Z,23.30
2022-08-11T22:38:55.699Z,23.20
2022-08-11T22:41:42.991Z,23.10
2022-08-11T22:44:29.551Z,23.10
2022-08-11T22:47:18.450Z,23.00
2022-08-11T22:50:08.206Z,23.00
2022-08-11T22:52:55.602Z,22.90
2022-08-11T22:55:43.632Z,22.90
2022-08-11T22:58:30.993Z,22.90
2022-08-11T23:01:17.540Z,22.80
2022-08-11T23:04:05.999Z,22.80
2022-08-11T23:06:56.961Z,22.70
2022-08-11T23:09:44.089Z,22.70
2022-08-11T23:12:31.821Z,22.60
2022-08-11T23:15:19.212Z,22.60
2022-08-11T23:18:06.190Z,22.60
2022-08-11T23:20:53.762Z,22.50
2022-08-11T23:23:46.846Z,22.50
2022-08-11T23:26:35.997Z,22.50
2022-08-11T23:29:23.434Z,22.50
2022-08-11T23:32:11.308Z,22.40
2022-08-11T23:35:38.984Z,22.40
2022-08-11T23:38:11.966Z,22.30
2022-08-11T23:40:58.377Z,22.30
2022-08-11T23:43:44.259Z,22.30
2022-08-11T23:46:30.063Z,22.20
2022-08-11T23:49:20.892Z,22.20
2022-08-11T23:52:08.501Z,22.20
2022-08-11T23:54:55.014Z,22.20
2022-08-11T23:57:48.672Z,22.10
